sensor_id;sensor_type;location;lat;lon;timestamp;temperature;humidity
2825;DHT22;1420;51.324;12.344;2024-01-30T00:02:07;4.00;99.90
2825;DHT22;1420;51.324;12.344;2024-01-30T00:04:34;4.00;99.90
2825;DHT22;1420;51.324;12.344;2024-01-30T00:07:01;4.00;99.90
2825;DHT22;1420;51.324;12.344;2024-01-30T00:09:28;4.00;99.90
2825;DHT22;1420;51.324;12.344;2024-01-30T00:11:56;4.00;99.90
2825;DHT22;1420;51.324;12.344;2024-01-30T00:14:23;4.00;99.90
2825;DHT22;1420;51.324;12.344;2024-01-30T00:16:50;4.00;99.90
2825;DHT22;1420;51.324;12.344;2024-01-30T00:19:17;4.00;99.90
2825;DHT22;1420;51.324;12.344;2024-01-30T00:21:45;4.10;99.90
2825;DHT22;1420;51.324;12.344;2024-01-30T00:24:13;4.20;99.90
2825;DHT22;1420;51.324;12.344;2024-01-30T00:26:40;4.20;99.90
2825;DHT22;1420;51.324;12.344;2024-01-30T00:29:07;4.20;99.90
2825;DHT22;1420;51.324;12.344;2024-01-30T00:31:35;4.30;99.90
2825;DHT22;1420;51.324;12.344;2024-01-30T00:34:02;4.20;99.90
2825;DHT22;1420;51.324;12.344;2024-01-30T00:36:29;4.20;99.90
2825;DHT22;1420;51.324;12.344;2024-01-30T00:38:56;4.20;99.90
2825;DHT22;1420;51.324;12.344;2024-01-30T00:41:23;4.20;99.90
2825;DHT22;1420;51.324;12.344;2024-01-30T00:43:51;4.30;99.90
2825;DHT22;1420;51.324;12.344;2024-01-30T00:46:19;4.30;99.90
2825;DHT22;1420;51.324;12.344;2024-01-30T00:48:47;4.30;99.90
2825;DHT22;1420;51.324;12.344;2024-01-30T00:51:14;4.20;99.90
2825;DHT22;1420;51.324;12.344;2024-01-30T00:53:42;4.30;99.90
2825;DHT22;1420;51.324;12.344;2024-01-30T00:56:09;4.20;99.90
2825;DHT22;1420;51.324;12.344;2024-01-30T00:58:36;4.30;99.90
2825;DHT22;1420;51.324;12.344;2024-01-30T01:01:03;4.30;99.90
2825;DHT22;1420;51.324;12.344;2024-01-30T01:03:30;4.30;99.90
2825;DHT22;1420;51.324;12.344;2024-01-30T01:05:58;4.30;99.90
2825;DHT22;1420;51.324;12.344;2024-01-30T01:08:25;4.40;99.90
2825;DHT22;1420;51.324;12.344;2024-01-30T01:10:52;4.30;99.90
2825;DHT22;1420;51.324;12.344;2024-01-30T01:13:19;4.40;99.90
2825;DHT22;1420;51.324;12.344;2024-01-30T01:15:46;4.40;99.90
2825;DHT22;1420;51.324;12.344;2024-01-30T01:18:14;4.40;99.90
2825;DHT22;1420;51.324;12.344;2024-01-30T01:20:42;4.40;99.90
2825;DHT22;1420;51.324;12.344;2024-01-30T01:23:09;4.40;99.90
2825;DHT22;1420;51.324;12.344;2024-01-30T01:25:36;4.40;99.90
2825;DHT22;1420;51.324;12.344;2024-01-30T01:28:03;4.50;99.90
2825;DHT22;1420;51.324;12.344;2024-01-30T01:30:31;4.50;99.90
2825;DHT22;1420;51.324;12.344;2024-01-30T01:32:59;4.50;99.90
2825;DHT22;1420;51.324;12.344;2024-01-30T01:35:27;4.50;99.90
2825;DHT22;1420;51.324;12.344;2024-01-30T01:37:55;4.40;99.90
2825;DHT22;1420;51.324;12.344;2024-01-30T01:40:23;4.50;99.90
2825;DHT22;1420;51.324;12.344;2024-01-30T01:42:50;4.50;99.90
2825;DHT22;1420;51.324;12.344;2024-01-30T01:45:18;4.40;99.90
2825;DHT22;1420;51.324;12.344;2024-01-30T01:47:45;4.40;99.90
2825;DHT22;1420;51.324;12.344;2024-01-30T01:50:13;4.50;99.90
2825;DHT22;1420;51.324;12.344;2024-01-30T01:52:40;4.50;99.90
2825;DHT22;1420;51.324;12.344;2024-01-30T01:55:07;4.50;99.90
2825;DHT22;1420;51.324;12.344;2024-01-30T01:57:35;4.60;99.90
2825;DHT22;1420;51.324;12.344;2024-01-30T02:00:03;4.50;99.90
2825;DHT22;1420;51.324;12.344;2024-01-30T02:02:30;4.60;99.90
2825;DHT22;1420;51.324;12.344;2024-01-30T02:04:58;4.60;99.90
2825;DHT22;1420;51.324;12.344;2024-01-30T02:07:26;4.60;99.90
2825;DHT22;1420;51.324;12.344;2024-01-30T02:09:53;4.60;99.90
2825;DHT22;1420;51.324;12.344;2024-01-30T02:12:20;4.60;99.90
2825;DHT22;1420;51.324;12.344;2024-01-30T02:14:48;4.50;99.90
2825;DHT22;1420;51.324;12.344;2024-01-30T02:17:16;4.50;99.90
2825;DHT22;1420;51.324;12.344;2024-01-30T02:19:43;4.50;99.90
2825;DHT22;1420;51.324;12.344;2024-01-30T02:22:11;4.50;99.90
2825;DHT22;1420;51.324;12.344;2024-01-30T02:24:39;4.50;99.90
2825;DHT22;1420;51.324;12.344;2024-01-30T02:27:06;4.50;99.90
2825;DHT22;1420;51.324;12.344;2024-01-30T02:29:33;4.60;99.90
2825;DHT22;1420;51.324;12.344;2024-01-30T02:32:00;4.60;99.90
2825;DHT22;1420;51.324;12.344;2024-01-30T02:34:27;4.50;99.90
2825;DHT22;1420;51.324;12.344;2024-01-30T02:36:55;4.40;99.90
2825;DHT22;1420;51.324;12.344;2024-01-30T02:39:22;4.40;99.90
2825;DHT22;1420;51.324;12.344;2024-01-30T02:41:49;4.30;99.90
2825;DHT22;1420;51.324;12.344;2024-01-30T02:44:16;4.30;99.90
2825;DHT22;1420;51.324;12.344;2024-01-30T02:46:44;4.30;99.90
2825;DHT22;1420;51.324;12.344;2024-01-30T02:49:12;4.30;99.90
2825;DHT22;1420;51.324;12.344;2024-01-30T02:51:40;4.20;99.90
2825;DHT22;1420;51.324;12.344;2024-01-30T02:54:07;4.20;99.90
2825;DHT22;1420;51.324;12.344;2024-01-30T02:56:35;4.20;99.90
2825;DHT22;1420;51.324;12.344;2024-01-30T02:59:02;4.20;99.90
2825;DHT22;1420;51.324;12.344;2024-01-30T03:01:29;4.20;99.90
2825;DHT22;1420;51.324;12.344;2024-01-30T03:03:56;4.10;99.90
2825;DHT22;1420;51.324;12.344;2024-01-30T03:06:23;4.00;99.90
2825;DHT22;1420;51.324;12.344;2024-01-30T03:08:51;4.00;99.90
2825;DHT22;1420;51.324;12.344;2024-01-30T03:11:18;4.00;99.90
2825;DHT22;1420;51.324;12.344;2024-01-30T03:13:46;3.90;99.90
2825;DHT22;1420;51.324;12.344;2024-01-30T03:16:14;3.90;99.90
2825;DHT22;1420;51.324;12.344;2024-01-30T03:18:42;3.90;99.90
2825;DHT22;1420;51.324;12.344;2024-01-30T03:21:10;3.80;99.90
2825;DHT22;1420;51.324;12.344;2024-01-30T03:23:37;3.80;99.90
2825;DHT22;1420;51.324;12.344;2024-01-30T03:26:04;3.80;99.90
2825;DHT22;1420;51.324;12.344;2024-01-30T03:28:31;3.90;99.90
2825;DHT22;1420;51.324;12.344;2024-01-30T03:30:58;3.80;99.90
2825;DHT22;1420;51.324;12.344;2024-01-30T03:33:26;3.80;99.90
2825;DHT22;1420;51.324;12.344;2024-01-30T03:35:53;3.80;99.90
2825;DHT22;1420;51.324;12.344;2024-01-30T03:38:21;3.80;99.90
2825;DHT22;1420;51.324;12.344;2024-01-30T03:40:49;3.80;99.90
2825;DHT22;1420;51.324;12.344;2024-01-30T03:43:17;3.80;99.90
2825;DHT22;1420;51.324;12.344;2024-01-30T03:45:44;3.80;99.90
2825;DHT22;1420;51.324;12.344;2024-01-30T03:48:11;3.80;99.90
2825;DHT22;1420;51.324;12.344;2024-01-30T03:50:38;3.90;99.90
2825;DHT22;1420;51.324;12.344;2024-01-30T03:53:05;3.80;99.90
2825;DHT22;1420;51.324;12.344;2024-01-30T03:55:33;3.90;99.90
2825;DHT22;1420;51.324;12.344;2024-01-30T03:58:00;3.90;99.90
2825;DHT22;1420;51.324;12.344;2024-01-30T04:00:27;3.90;99.90
2825;DHT22;1420;51.324;12.344;2024-01-30T04:02:55;3.90;99.90
2825;DHT22;1420;51.324;12.344;2024-01-30T04:05:23;4.00;99.90
2825;DHT22;1420;51.324;12.344;2024-01-30T04:07:51;4.00;99.90
2825;DHT22;1420;51.324;12.344;2024-01-30T04:10:18;4.00;99.90
2825;DHT22;1420;51.324;12.344;2024-01-30T04:12:45;4.00;99.90
2825;DHT22;1420;51.324;12.344;2024-01-30T04:15:13;4.00;99.90
2825;DHT22;1420;51.324;12.344;2024-01-30T04:17:40;4.00;99.90
2825;DHT22;1420;51.324;12.344;2024-01-30T04:20:07;4.00;99.90
2825;DHT22;1420;51.324;12.344;2024-01-30T04:22:34;4.00;99.90
2825;DHT22;1420;51.324;12.344;2024-01-30T04:25:02;4.00;99.90
2825;DHT22;1420;51.324;12.344;2024-01-30T04:27:29;4.00;99.90
2825;DHT22;1420;51.324;12.344;2024-01-30T04:29:56;4.10;99.90
2825;DHT22;1420;51.324;12.344;2024-01-30T04:32:23;4.10;99.90
2825;DHT22;1420;51.324;12.344;2024-01-30T04:34:51;4.10;99.90
2825;DHT22;1420;51.324;12.344;2024-01-30T04:37:18;4.20;99.90
2825;DHT22;1420;51.324;12.344;2024-01-30T04:39:45;4.20;99.90
2825;DHT22;1420;51.324;12.344;2024-01-30T04:42:12;4.20;99.90
2825;DHT22;1420;51.324;12.344;2024-01-30T04:44:40;4.10;99.90
2825;DHT22;1420;51.324;12.344;2024-01-30T04:47:08;4.10;99.90
2825;DHT22;1420;51.324;12.344;2024-01-30T04:49:35;4.00;99.90
2825;DHT22;1420;51.324;12.344;2024-01-30T04:52:03;4.10;99.90
2825;DHT22;1420;51.324;12.344;2024-01-30T04:54:30;4.10;99.90
2825;DHT22;1420;51.324;12.344;2024-01-30T04:56:58;4.00;99.90
2825;DHT22;1420;51.324;12.344;2024-01-30T04:59:25;4.00;99.90
2825;DHT22;1420;51.324;12.344;2024-01-30T05:01:52;4.10;99.90
2825;DHT22;1420;51.324;12.344;2024-01-30T05:04:19;4.10;99.90
2825;DHT22;1420;51.324;12.344;2024-01-30T05:06:47;4.00;99.90
2825;DHT22;1420;51.324;12.344;2024-01-30T05:09:15;3.90;99.90
2825;DHT22;1420;51.324;12.344;2024-01-30T05:11:42;3.90;99.90
2825;DHT22;1420;51.324;12.344;2024-01-30T05:14:10;3.90;99.90
2825;DHT22;1420;51.324;12.344;2024-01-30T05:16:38;3.90;99.90
2825;DHT22;1420;51.324;12.344;2024-01-30T05:19:05;3.90;99.90
2825;DHT22;1420;51.324;12.344;2024-01-30T05:21:32;3.90;99.90
2825;DHT22;1420;51.324;12.344;2024-01-30T05:23:59;3.90;99.90
2825;DHT22;1420;51.324;12.344;2024-01-30T05:26:26;3.90;99.90
2825;DHT22;1420;51.324;12.344;2024-01-30T05:28:54;3.90;99.90
2825;DHT22;1420;51.324;12.344;2024-01-30T05:31:21;4.00;99.90
2825;DHT22;1420;51.324;12.344;2024-01-30T05:33:49;4.00;99.90
2825;DHT22;1420;51.324;12.344;2024-01-30T05:36:16;4.00;99.90
2825;DHT22;1420;51.324;12.344;2024-01-30T05:38:43;4.00;99.90
2825;DHT22;1420;51.324;12.344;2024-01-30T05:41:10;4.10;99.90
2825;DHT22;1420;51.324;12.344;2024-01-30T05:43:37;4.10;99.90
2825;DHT22;1420;51.324;12.344;2024-01-30T05:46:06;4.20;99.90
2825;DHT22;1420;51.324;12.344;2024-01-30T05:48:33;4.20;99.90
2825;DHT22;1420;51.324;12.344;2024-01-30T05:51:01;4.10;99.90
2825;DHT22;1420;51.324;12.344;2024-01-30T05:53:28;4.10;99.90
2825;DHT22;1420;51.324;12.344;2024-01-30T05:55:55;4.50;99.90
2825;DHT22;1420;51.324;12.344;2024-01-30T05:58:22;4.90;99.90
2825;DHT22;1420;51.324;12.344;2024-01-30T06:00:49;4.90;99.90
2825;DHT22;1420;51.324;12.344;2024-01-30T06:03:17;5.10;99.90
2825;DHT22;1420;51.324;12.344;2024-01-30T06:05:44;5.20;99.90
2825;DHT22;1420;51.324;12.344;2024-01-30T06:08:13;5.30;99.90
2825;DHT22;1420;51.324;12.344;2024-01-30T06:10:40;5.30;99.90
2825;DHT22;1420;51.324;12.344;2024-01-30T06:13:07;5.20;99.90
2825;DHT22;1420;51.324;12.344;2024-01-30T06:15:35;4.30;99.90
2825;DHT22;1420;51.324;12.344;2024-01-30T06:18:03;4.20;99.90
2825;DHT22;1420;51.324;12.344;2024-01-30T06:20:31;4.10;99.90
2825;DHT22;1420;51.324;12.344;2024-01-30T06:22:58;4.10;99.90
2825;DHT22;1420;51.324;12.344;2024-01-30T06:25:25;3.90;99.90
2825;DHT22;1420;51.324;12.344;2024-01-30T06:27:53;3.80;99.90
2825;DHT22;1420;51.324;12.344;2024-01-30T06:30:20;3.70;99.90
2825;DHT22;1420;51.324;12.344;2024-01-30T06:32:48;3.80;99.90
2825;DHT22;1420;51.324;12.344;2024-01-30T06:35:15;3.80;99.90
2825;DHT22;1420;51.324;12.344;2024-01-30T06:37:42;3.80;99.90
2825;DHT22;1420;51.324;12.344;2024-01-30T06:40:09;3.70;99.90
2825;DHT22;1420;51.324;12.344;2024-01-30T06:42:37;3.80;99.90
2825;DHT22;1420;51.324;12.344;2024-01-30T06:45:05;3.80;99.90
2825;DHT22;1420;51.324;12.344;2024-01-30T06:47:32;3.70;99.90
2825;DHT22;1420;51.324;12.344;2024-01-30T06:50:00;3.70;99.90
2825;DHT22;1420;51.324;12.344;2024-01-30T06:52:27;3.70;99.90
2825;DHT22;1420;51.324;12.344;2024-01-30T06:54:54;3.60;99.90
2825;DHT22;1420;51.324;12.344;2024-01-30T06:57:21;3.70;99.90
2825;DHT22;1420;51.324;12.344;2024-01-30T06:59:48;3.80;99.90
2825;DHT22;1420;51.324;12.344;2024-01-30T07:02:16;3.60;99.90
2825;DHT22;1420;51.324;12.344;2024-01-30T07:04:44;3.60;99.90
2825;DHT22;1420;51.324;12.344;2024-01-30T07:07:12;3.70;99.90
2825;DHT22;1420;51.324;12.344;2024-01-30T07:09:40;3.70;99.90
2825;DHT22;1420;51.324;12.344;2024-01-30T07:12:07;3.70;99.90
2825;DHT22;1420;51.324;12.344;2024-01-30T07:14:35;3.80;99.90
2825;DHT22;1420;51.324;12.344;2024-01-30T07:17:02;3.90;99.90
2825;DHT22;1420;51.324;12.344;2024-01-30T07:19:29;4.00;99.90
2825;DHT22;1420;51.324;12.344;2024-01-30T07:21:56;3.90;99.90
2825;DHT22;1420;51.324;12.344;2024-01-30T07:24:23;4.00;99.90
2825;DHT22;1420;51.324;12.344;2024-01-30T07:26:51;4.10;99.90
2825;DHT22;1420;51.324;12.344;2024-01-30T07:29:19;4.20;99.90
2825;DHT22;1420;51.324;12.344;2024-01-30T07:31:46;4.20;99.90
2825;DHT22;1420;51.324;12.344;2024-01-30T07:34:14;4.20;99.90
2825;DHT22;1420;51.324;12.344;2024-01-30T07:36:42;4.20;99.90
2825;DHT22;1420;51.324;12.344;2024-01-30T07:39:09;4.20;99.90
2825;DHT22;1420;51.324;12.344;2024-01-30T07:41:36;4.30;99.90
2825;DHT22;1420;51.324;12.344;2024-01-30T07:44:03;4.40;99.90
2825;DHT22;1420;51.324;12.344;2024-01-30T07:46:30;4.40;99.90
2825;DHT22;1420;51.324;12.344;2024-01-30T07:48:58;4.40;99.90
2825;DHT22;1420;51.324;12.344;2024-01-30T07:51:25;4.60;99.90
2825;DHT22;1420;51.324;12.344;2024-01-30T07:53:52;4.70;99.90
2825;DHT22;1420;51.324;12.344;2024-01-30T07:56:20;5.00;99.90
2825;DHT22;1420;51.324;12.344;2024-01-30T07:58:48;4.90;99.90
2825;DHT22;1420;51.324;12.344;2024-01-30T08:01:16;5.00;99.90
2825;DHT22;1420;51.324;12.344;2024-01-30T08:03:43;4.90;99.90
2825;DHT22;1420;51.324;12.344;2024-01-30T08:06:10;5.10;99.90
2825;DHT22;1420;51.324;12.344;2024-01-30T08:08:38;5.20;99.90
2825;DHT22;1420;51.324;12.344;2024-01-30T08:11:05;5.30;99.90
2825;DHT22;1420;51.324;12.344;2024-01-30T08:13:32;5.40;99.90
2825;DHT22;1420;51.324;12.344;2024-01-30T08:15:59;5.30;99.90
2825;DHT22;1420;51.324;12.344;2024-01-30T08:18:26;5.40;99.90
2825;DHT22;1420;51.324;12.344;2024-01-30T08:20:54;5.50;99.90
2825;DHT22;1420;51.324;12.344;2024-01-30T08:23:22;5.60;99.90
2825;DHT22;1420;51.324;12.344;2024-01-30T08:25:50;5.60;99.60
2825;DHT22;1420;51.324;12.344;2024-01-30T08:28:17;5.60;99.50
2825;DHT22;1420;51.324;12.344;2024-01-30T08:30:45;5.60;99.50
2825;DHT22;1420;51.324;12.344;2024-01-30T08:33:12;5.60;99.30
2825;DHT22;1420;51.324;12.344;2024-01-30T08:35:39;5.80;99.90
2825;DHT22;1420;51.324;12.344;2024-01-30T08:38:06;5.80;99.70
2825;DHT22;1420;51.324;12.344;2024-01-30T08:40:33;5.90;98.90
2825;DHT22;1420;51.324;12.344;2024-01-30T08:43:01;5.90;99.00
2825;DHT22;1420;51.324;12.344;2024-01-30T08:45:29;6.10;98.60
2825;DHT22;1420;51.324;12.344;2024-01-30T08:47:56;6.00;98.60
2825;DHT22;1420;51.324;12.344;2024-01-30T08:50:24;6.00;98.70
2825;DHT22;1420;51.324;12.344;2024-01-30T08:52:51;6.00;98.70
2825;DHT22;1420;51.324;12.344;2024-01-30T08:55:18;6.00;99.40
2825;DHT22;1420;51.324;12.344;2024-01-30T08:57:45;6.10;98.90
2825;DHT22;1420;51.324;12.344;2024-01-30T09:00:13;6.20;99.20
2825;DHT22;1420;51.324;12.344;2024-01-30T09:02:40;6.30;98.20
2825;DHT22;1420;51.324;12.344;2024-01-30T09:05:08;6.40;98.50
2825;DHT22;1420;51.324;12.344;2024-01-30T09:07:35;6.50;99.60
2825;DHT22;1420;51.324;12.344;2024-01-30T09:10:02;6.60;98.30
2825;DHT22;1420;51.324;12.344;2024-01-30T09:12:29;6.60;97.90
2825;DHT22;1420;51.324;12.344;2024-01-30T09:14:57;6.60;98.40
2825;DHT22;1420;51.324;12.344;2024-01-30T09:17:24;6.70;98.90
2825;DHT22;1420;51.324;12.344;2024-01-30T09:19:51;6.70;98.80
2825;DHT22;1420;51.324;12.344;2024-01-30T09:22:18;6.90;99.00
2825;DHT22;1420;51.324;12.344;2024-01-30T09:24:45;7.00;99.50
2825;DHT22;1420;51.324;12.344;2024-01-30T09:27:13;7.00;98.10
2825;DHT22;1420;51.324;12.344;2024-01-30T09:29:40;7.20;98.60
2825;DHT22;1420;51.324;12.344;2024-01-30T09:32:07;7.30;97.80
2825;DHT22;1420;51.324;12.344;2024-01-30T09:34:35;7.20;97.60
2825;DHT22;1420;51.324;12.344;2024-01-30T09:37:03;7.40;98.50
2825;DHT22;1420;51.324;12.344;2024-01-30T09:39:30;7.40;98.40
2825;DHT22;1420;51.324;12.344;2024-01-30T09:42:26;7.50;97.40
2825;DHT22;1420;51.324;12.344;2024-01-30T09:44:51;7.50;97.30
2825;DHT22;1420;51.324;12.344;2024-01-30T09:47:18;7.50;97.20
2825;DHT22;1420;51.324;12.344;2024-01-30T09:49:46;7.60;98.00
2825;DHT22;1420;51.324;12.344;2024-01-30T09:52:13;7.70;97.60
2825;DHT22;1420;51.324;12.344;2024-01-30T09:54:41;7.80;97.70
2825;DHT22;1420;51.324;12.344;2024-01-30T09:57:09;7.80;97.20
2825;DHT22;1420;51.324;12.344;2024-01-30T09:59:37;7.90;97.00
2825;DHT22;1420;51.324;12.344;2024-01-30T10:02:05;8.00;96.70
2825;DHT22;1420;51.324;12.344;2024-01-30T10:04:33;8.10;96.90
2825;DHT22;1420;51.324;12.344;2024-01-30T10:07:02;8.10;96.80
2825;DHT22;1420;51.324;12.344;2024-01-30T10:09:31;8.00;96.80
2825;DHT22;1420;51.324;12.344;2024-01-30T10:11:57;8.10;96.60
2825;DHT22;1420;51.324;12.344;2024-01-30T10:14:24;8.10;96.60
2825;DHT22;1420;51.324;12.344;2024-01-30T10:16:51;8.30;96.70
2825;DHT22;1420;51.324;12.344;2024-01-30T10:19:18;8.30;95.60
2825;DHT22;1420;51.324;12.344;2024-01-30T10:21:46;8.40;96.40
2825;DHT22;1420;51.324;12.344;2024-01-30T10:24:13;8.50;95.80
2825;DHT22;1420;51.324;12.344;2024-01-30T10:26:43;8.40;95.70
2825;DHT22;1420;51.324;12.344;2024-01-30T10:29:08;8.50;95.90
2825;DHT22;1420;51.324;12.344;2024-01-30T10:31:36;8.70;96.20
2825;DHT22;1420;51.324;12.344;2024-01-30T10:34:03;8.60;96.10
2825;DHT22;1420;51.324;12.344;2024-01-30T10:36:31;8.80;96.10
2825;DHT22;1420;51.324;12.344;2024-01-30T10:38:59;8.90;96.70
2825;DHT22;1420;51.324;12.344;2024-01-30T10:41:27;8.90;96.80
2825;DHT22;1420;51.324;12.344;2024-01-30T10:44:00;9.00;97.10
2825;DHT22;1420;51.324;12.344;2024-01-30T10:46:26;8.90;97.00
2825;DHT22;1420;51.324;12.344;2024-01-30T10:48:57;9.20;98.10
2825;DHT22;1420;51.324;12.344;2024-01-30T10:51:22;9.10;98.00
2825;DHT22;1420;51.324;12.344;2024-01-30T10:53:48;9.20;96.90
2825;DHT22;1420;51.324;12.344;2024-01-30T10:56:16;9.20;96.90
2825;DHT22;1420;51.324;12.344;2024-01-30T10:58:44;9.40;96.80
2825;DHT22;1420;51.324;12.344;2024-01-30T11:01:12;9.40;96.10
2825;DHT22;1420;51.324;12.344;2024-01-30T11:03:40;9.50;96.40
2825;DHT22;1420;51.324;12.344;2024-01-30T11:06:10;9.50;96.30
2825;DHT22;1420;51.324;12.344;2024-01-30T11:08:36;9.40;96.10
2825;DHT22;1420;51.324;12.344;2024-01-30T11:11:04;9.40;96.00
2825;DHT22;1420;51.324;12.344;2024-01-30T11:13:32;9.60;95.90
2825;DHT22;1420;51.324;12.344;2024-01-30T11:16:02;9.50;96.20
2825;DHT22;1420;51.324;12.344;2024-01-30T11:18:29;9.50;96.20
2825;DHT22;1420;51.324;12.344;2024-01-30T11:20:57;9.50;96.10
2825;DHT22;1420;51.324;12.344;2024-01-30T11:23:23;9.50;97.10
2825;DHT22;1420;51.324;12.344;2024-01-30T11:25:51;9.70;96.50
2825;DHT22;1420;51.324;12.344;2024-01-30T11:28:18;9.70;96.60
2825;DHT22;1420;51.324;12.344;2024-01-30T11:30:46;9.70;97.20
2825;DHT22;1420;51.324;12.344;2024-01-30T11:33:14;9.70;96.90
2825;DHT22;1420;51.324;12.344;2024-01-30T11:35:42;9.90;96.70
2825;DHT22;1420;51.324;12.344;2024-01-30T11:38:09;9.90;96.90
2825;DHT22;1420;51.324;12.344;2024-01-30T11:40:37;9.90;97.30
2825;DHT22;1420;51.324;12.344;2024-01-30T11:43:06;10.00;96.70
2825;DHT22;1420;51.324;12.344;2024-01-30T11:45:33;10.00;97.10
2825;DHT22;1420;51.324;12.344;2024-01-30T11:48:01;10.10;97.30
2825;DHT22;1420;51.324;12.344;2024-01-30T11:50:29;10.00;97.30
2825;DHT22;1420;51.324;12.344;2024-01-30T11:52:57;10.00;97.10
2825;DHT22;1420;51.324;12.344;2024-01-30T11:55:25;10.00;97.20
2825;DHT22;1420;51.324;12.344;2024-01-30T11:57:55;10.00;97.20
2825;DHT22;1420;51.324;12.344;2024-01-30T12:00:22;10.20;97.50
2825;DHT22;1420;51.324;12.344;2024-01-30T12:02:51;10.40;98.30
2825;DHT22;1420;51.324;12.344;2024-01-30T12:05:19;10.50;97.40
2825;DHT22;1420;51.324;12.344;2024-01-30T12:07:45;10.60;96.90
2825;DHT22;1420;51.324;12.344;2024-01-30T12:10:13;10.70;97.30
2825;DHT22;1420;51.324;12.344;2024-01-30T12:12:42;10.80;96.90
2825;DHT22;1420;51.324;12.344;2024-01-30T12:15:09;10.90;97.20
2825;DHT22;1420;51.324;12.344;2024-01-30T12:17:37;11.10;98.10
2825;DHT22;1420;51.324;12.344;2024-01-30T12:20:08;11.20;98.00
2825;DHT22;1420;51.324;12.344;2024-01-30T12:22:36;11.20;98.00
2825;DHT22;1420;51.324;12.344;2024-01-30T12:25:04;11.30;98.10
2825;DHT22;1420;51.324;12.344;2024-01-30T12:27:30;11.40;98.40
2825;DHT22;1420;51.324;12.344;2024-01-30T12:29:58;11.60;97.70
2825;DHT22;1420;51.324;12.344;2024-01-30T12:32:25;11.60;97.90
2825;DHT22;1420;51.324;12.344;2024-01-30T12:34:55;11.70;98.20
2825;DHT22;1420;51.324;12.344;2024-01-30T12:37:22;11.80;98.70
2825;DHT22;1420;51.324;12.344;2024-01-30T12:39:51;11.60;98.10
2825;DHT22;1420;51.324;12.344;2024-01-30T12:42:19;11.80;98.80
2825;DHT22;1420;51.324;12.344;2024-01-30T12:44:45;11.70;98.60
2825;DHT22;1420;51.324;12.344;2024-01-30T12:47:12;11.80;98.10
2825;DHT22;1420;51.324;12.344;2024-01-30T12:49:40;11.80;98.50
2825;DHT22;1420;51.324;12.344;2024-01-30T12:52:08;11.80;98.80
2825;DHT22;1420;51.324;12.344;2024-01-30T12:54:35;11.70;98.80
2825;DHT22;1420;51.324;12.344;2024-01-30T12:57:02;11.70;99.20
2825;DHT22;1420;51.324;12.344;2024-01-30T12:59:29;11.70;99.20
2825;DHT22;1420;51.324;12.344;2024-01-30T13:01:57;11.80;99.30
2825;DHT22;1420;51.324;12.344;2024-01-30T13:04:24;11.80;98.60
2825;DHT22;1420;51.324;12.344;2024-01-30T13:06:51;11.90;99.30
2825;DHT22;1420;51.324;12.344;2024-01-30T13:09:18;11.80;99.10
2825;DHT22;1420;51.324;12.344;2024-01-30T13:11:45;11.90;98.80
2825;DHT22;1420;51.324;12.344;2024-01-30T13:14:13;11.80;99.00
2825;DHT22;1420;51.324;12.344;2024-01-30T13:16:40;11.80;99.00
2825;DHT22;1420;51.324;12.344;2024-01-30T13:19:07;11.80;98.90
2825;DHT22;1420;51.324;12.344;2024-01-30T13:21:34;11.80;98.80
2825;DHT22;1420;51.324;12.344;2024-01-30T13:24:01;11.70;99.70
2825;DHT22;1420;51.324;12.344;2024-01-30T13:26:29;11.80;99.10
2825;DHT22;1420;51.324;12.344;2024-01-30T13:28:57;11.60;99.90
2825;DHT22;1420;51.324;12.344;2024-01-30T13:31:24;11.40;99.40
2825;DHT22;1420;51.324;12.344;2024-01-30T13:33:53;11.30;99.50
2825;DHT22;1420;51.324;12.344;2024-01-30T13:36:20;11.30;99.60
2825;DHT22;1420;51.324;12.344;2024-01-30T13:38:48;11.40;99.20
2825;DHT22;1420;51.324;12.344;2024-01-30T13:41:16;11.40;98.90
2825;DHT22;1420;51.324;12.344;2024-01-30T13:43:44;11.40;98.90
2825;DHT22;1420;51.324;12.344;2024-01-30T13:46:11;11.30;99.90
2825;DHT22;1420;51.324;12.344;2024-01-30T13:48:38;11.20;99.90
2825;DHT22;1420;51.324;12.344;2024-01-30T13:51:05;11.20;99.90
2825;DHT22;1420;51.324;12.344;2024-01-30T13:53:32;11.10;99.90
2825;DHT22;1420;51.324;12.344;2024-01-30T13:56:00;11.10;99.90
2825;DHT22;1420;51.324;12.344;2024-01-30T13:58:27;11.10;99.90
2825;DHT22;1420;51.324;12.344;2024-01-30T14:00:54;11.10;99.90
2825;DHT22;1420;51.324;12.344;2024-01-30T14:03:21;11.10;99.90
2825;DHT22;1420;51.324;12.344;2024-01-30T14:05:48;11.10;99.90
2825;DHT22;1420;51.324;12.344;2024-01-30T14:08:16;11.20;99.90
2825;DHT22;1420;51.324;12.344;2024-01-30T14:10:43;11.20;99.90
2825;DHT22;1420;51.324;12.344;2024-01-30T14:13:10;11.20;99.90
2825;DHT22;1420;51.324;12.344;2024-01-30T14:15:37;11.10;99.90
2825;DHT22;1420;51.324;12.344;2024-01-30T14:18:05;11.00;99.90
2825;DHT22;1420;51.324;12.344;2024-01-30T14:20:32;11.00;99.90
2825;DHT22;1420;51.324;12.344;2024-01-30T14:22:59;11.10;99.90
2825;DHT22;1420;51.324;12.344;2024-01-30T14:25:26;11.00;99.90
2825;DHT22;1420;51.324;12.344;2024-01-30T14:27:53;11.00;99.90
2825;DHT22;1420;51.324;12.344;2024-01-30T14:30:21;11.10;99.90
2825;DHT22;1420;51.324;12.344;2024-01-30T14:32:49;11.00;99.90
2825;DHT22;1420;51.324;12.344;2024-01-30T14:35:17;10.90;99.90
2825;DHT22;1420;51.324;12.344;2024-01-30T14:37:45;10.90;99.90
2825;DHT22;1420;51.324;12.344;2024-01-30T14:40:13;10.90;99.90
2825;DHT22;1420;51.324;12.344;2024-01-30T14:42:40;10.90;99.90
2825;DHT22;1420;51.324;12.344;2024-01-30T14:45:09;10.80;99.90
2825;DHT22;1420;51.324;12.344;2024-01-30T14:47:37;10.90;99.90
2825;DHT22;1420;51.324;12.344;2024-01-30T14:50:04;10.80;99.90
2825;DHT22;1420;51.324;12.344;2024-01-30T14:52:31;10.90;99.90
2825;DHT22;1420;51.324;12.344;2024-01-30T14:54:58;10.80;99.90
2825;DHT22;1420;51.324;12.344;2024-01-30T14:57:26;10.80;99.90
2825;DHT22;1420;51.324;12.344;2024-01-30T14:59:53;10.80;99.90
2825;DHT22;1420;51.324;12.344;2024-01-30T15:02:20;10.80;99.90
2825;DHT22;1420;51.324;12.344;2024-01-30T15:04:47;10.80;99.90
2825;DHT22;1420;51.324;12.344;2024-01-30T15:07:14;10.70;99.90
2825;DHT22;1420;51.324;12.344;2024-01-30T15:09:42;10.70;99.90
2825;DHT22;1420;51.324;12.344;2024-01-30T15:12:09;10.70;99.90
2825;DHT22;1420;51.324;12.344;2024-01-30T15:14:36;10.70;99.90
2825;DHT22;1420;51.324;12.344;2024-01-30T15:17:03;10.70;99.90
2825;DHT22;1420;51.324;12.344;2024-01-30T15:19:30;10.60;99.90
2825;DHT22;1420;51.324;12.344;2024-01-30T15:21:58;10.60;99.90
2825;DHT22;1420;51.324;12.344;2024-01-30T15:24:25;10.60;99.90
2825;DHT22;1420;51.324;12.344;2024-01-30T15:26:52;10.60;99.90
2825;DHT22;1420;51.324;12.344;2024-01-30T15:29:19;10.50;99.90
2825;DHT22;1420;51.324;12.344;2024-01-30T15:31:46;10.40;99.90
2825;DHT22;1420;51.324;12.344;2024-01-30T15:34:14;10.40;99.90
2825;DHT22;1420;51.324;12.344;2024-01-30T15:36:41;10.40;99.90
2825;DHT22;1420;51.324;12.344;2024-01-30T15:39:08;10.30;99.90
2825;DHT22;1420;51.324;12.344;2024-01-30T15:41:35;10.20;99.90
2825;DHT22;1420;51.324;12.344;2024-01-30T15:44:03;10.10;99.90
2825;DHT22;1420;51.324;12.344;2024-01-30T15:46:30;10.10;99.90
2825;DHT22;1420;51.324;12.344;2024-01-30T15:48:57;10.10;99.90
2825;DHT22;1420;51.324;12.344;2024-01-30T15:51:24;10.00;99.90
2825;DHT22;1420;51.324;12.344;2024-01-30T15:53:51;10.00;99.90
2825;DHT22;1420;51.324;12.344;2024-01-30T15:56:19;9.90;99.90
2825;DHT22;1420;51.324;12.344;2024-01-30T15:58:46;9.90;99.90